sensor_id;sensor_type;location;lat;lon;timestamp;temperature;humidity
37806;DHT22;25082;50.870;0.022;2022-10-16T00:01:28;20.00;69.10
37806;DHT22;25082;50.870;0.022;2022-10-16T00:03:55;20.00;69.00
37806;DHT22;25082;50.870;0.022;2022-10-16T00:06:22;20.00;69.00
37806;DHT22;25082;50.870;0.022;2022-10-16T00:08:48;20.00;69.10
37806;DHT22;25082;50.870;0.022;2022-10-16T00:11:27;20.00;69.00
37806;DHT22;25082;50.870;0.022;2022-10-16T00:13:59;20.00;69.00
37806;DHT22;25082;50.870;0.022;2022-10-16T00:16:26;20.00;69.00
37806;DHT22;25082;50.870;0.022;2022-10-16T00:18:51;20.00;69.00
37806;DHT22;25082;50.870;0.022;2022-10-16T00:21:23;20.00;69.00
37806;DHT22;25082;50.870;0.022;2022-10-16T00:23:58;20.00;69.00
37806;DHT22;25082;50.870;0.022;2022-10-16T00:26:27;20.00;69.00
37806;DHT22;25082;50.870;0.022;2022-10-16T00:28:53;20.00;69.10
37806;DHT22;25082;50.870;0.022;2022-10-16T00:31:21;20.00;69.10
37806;DHT22;25082;50.870;0.022;2022-10-16T00:33:47;20.00;69.00
37806;DHT22;25082;50.870;0.022;2022-10-16T00:36:16;20.00;69.00
37806;DHT22;25082;50.870;0.022;2022-10-16T00:38:42;20.00;69.00
37806;DHT22;25082;50.870;0.022;2022-10-16T00:41:12;20.00;69.10
37806;DHT22;25082;50.870;0.022;2022-10-16T00:43:47;19.90;69.00
37806;DHT22;25082;50.870;0.022;2022-10-16T00:46:23;20.00;69.00
37806;DHT22;25082;50.870;0.022;2022-10-16T00:49:15;20.00;69.10
37806;DHT22;25082;50.870;0.022;2022-10-16T00:51:48;20.00;69.00
37806;DHT22;25082;50.870;0.022;2022-10-16T00:54:19;20.00;69.10
37806;DHT22;25082;50.870;0.022;2022-10-16T00:56:47;19.90;69.00
37806;DHT22;25082;50.870;0.022;2022-10-16T00:59:25;19.90;69.10
37806;DHT22;25082;50.870;0.022;2022-10-16T01:01:52;19.90;69.10
37806;DHT22;25082;50.870;0.022;2022-10-16T01:04:18;19.90;69.10
37806;DHT22;25082;50.870;0.022;2022-10-16T01:17:51;19.90;69.10
37806;DHT22;25082;50.870;0.022;2022-10-16T01:20:33;19.90;69.20
37806;DHT22;25082;50.870;0.022;2022-10-16T01:23:19;19.90;69.20
37806;DHT22;25082;50.870;0.022;2022-10-16T01:26:09;19.90;69.20
37806;DHT22;25082;50.870;0.022;2022-10-16T01:31:21;19.90;69.20
37806;DHT22;25082;50.870;0.022;2022-10-16T01:33:55;19.90;69.20
37806;DHT22;25082;50.870;0.022;2022-10-16T01:36:26;19.90;69.20
37806;DHT22;25082;50.870;0.022;2022-10-16T01:38:56;19.90;69.20
37806;DHT22;25082;50.870;0.022;2022-10-16T01:41:32;19.90;69.10
37806;DHT22;25082;50.870;0.022;2022-10-16T01:44:19;19.90;69.20
37806;DHT22;25082;50.870;0.022;2022-10-16T01:46:49;19.90;69.10
37806;DHT22;25082;50.870;0.022;2022-10-16T01:49:16;19.90;69.20
37806;DHT22;25082;50.870;0.022;2022-10-16T01:51:45;19.90;69.10
37806;DHT22;25082;50.870;0.022;2022-10-16T01:54:14;19.90;69.20
37806;DHT22;25082;50.870;0.022;2022-10-16T01:56:41;19.80;69.10
37806;DHT22;25082;50.870;0.022;2022-10-16T01:59:13;19.90;69.20
37806;DHT22;25082;50.870;0.022;2022-10-16T02:01:44;19.80;69.10
37806;DHT22;25082;50.870;0.022;2022-10-16T02:04:44;19.80;69.10
37806;DHT22;25082;50.870;0.022;2022-10-16T02:07:11;19.80;69.10
37806;DHT22;25082;50.870;0.022;2022-10-16T02:09:37;19.80;69.10
37806;DHT22;25082;50.870;0.022;2022-10-16T02:12:15;19.80;69.00
37806;DHT22;25082;50.870;0.022;2022-10-16T02:14:44;19.90;69.10
37806;DHT22;25082;50.870;0.022;2022-10-16T02:17:16;19.80;69.10
37806;DHT22;25082;50.870;0.022;2022-10-16T02:19:42;19.80;69.10
37806;DHT22;25082;50.870;0.022;2022-10-16T02:22:16;19.80;69.10
37806;DHT22;25082;50.870;0.022;2022-10-16T02:27:19;19.80;69.10
37806;DHT22;25082;50.870;0.022;2022-10-16T02:29:53;19.80;69.10
37806;DHT22;25082;50.870;0.022;2022-10-16T02:32:25;19.80;69.00
37806;DHT22;25082;50.870;0.022;2022-10-16T02:34:56;19.80;69.00
37806;DHT22;25082;50.870;0.022;2022-10-16T02:37:23;19.80;69.00
37806;DHT22;25082;50.870;0.022;2022-10-16T02:39:50;19.80;69.00
37806;DHT22;25082;50.870;0.022;2022-10-16T02:42:18;19.80;69.00
37806;DHT22;25082;50.870;0.022;2022-10-16T02:44:44;19.80;69.00
37806;DHT22;25082;50.870;0.022;2022-10-16T02:47:10;19.80;69.00
37806;DHT22;25082;50.870;0.022;2022-10-16T02:49:35;19.80;69.00
37806;DHT22;25082;50.870;0.022;2022-10-16T02:52:01;19.80;69.00
37806;DHT22;25082;50.870;0.022;2022-10-16T02:54:27;19.80;68.90
37806;DHT22;25082;50.870;0.022;2022-10-16T02:56:53;19.80;69.00
37806;DHT22;25082;50.870;0.022;2022-10-16T02:59:18;19.80;68.90
37806;DHT22;25082;50.870;0.022;2022-10-16T03:01:44;19.80;68.90
37806;DHT22;25082;50.870;0.022;2022-10-16T03:04:10;19.80;69.50
37806;DHT22;25082;50.870;0.022;2022-10-16T03:06:36;19.80;68.90
37806;DHT22;25082;50.870;0.022;2022-10-16T03:09:01;19.80;68.90
37806;DHT22;25082;50.870;0.022;2022-10-16T03:11:27;19.80;68.90
37806;DHT22;25082;50.870;0.022;2022-10-16T03:13:53;19.80;68.90
37806;DHT22;25082;50.870;0.022;2022-10-16T03:16:19;19.80;68.90
37806;DHT22;25082;50.870;0.022;2022-10-16T03:18:48;19.80;68.90
37806;DHT22;25082;50.870;0.022;2022-10-16T03:21:15;19.70;68.90
37806;DHT22;25082;50.870;0.022;2022-10-16T03:23:40;19.70;68.80
37806;DHT22;25082;50.870;0.022;2022-10-16T03:26:06;19.80;69.00
37806;DHT22;25082;50.870;0.022;2022-10-16T03:28:32;19.80;68.90
37806;DHT22;25082;50.870;0.022;2022-10-16T03:30:58;19.70;68.90
37806;DHT22;25082;50.870;0.022;2022-10-16T03:33:23;19.70;68.80
37806;DHT22;25082;50.870;0.022;2022-10-16T03:35:53;19.70;68.90
37806;DHT22;25082;50.870;0.022;2022-10-16T03:38:20;19.80;68.90
37806;DHT22;25082;50.870;0.022;2022-10-16T03:40:46;19.70;69.40
37806;DHT22;25082;50.870;0.022;2022-10-16T03:43:12;19.80;68.90
37806;DHT22;25082;50.870;0.022;2022-10-16T03:45:38;19.70;68.90
37806;DHT22;25082;50.870;0.022;2022-10-16T03:48:04;19.70;68.90
37806;DHT22;25082;50.870;0.022;2022-10-16T03:50:30;19.70;68.90
37806;DHT22;25082;50.870;0.022;2022-10-16T03:52:55;19.70;68.90
37806;DHT22;25082;50.870;0.022;2022-10-16T03:55:21;19.70;68.80
37806;DHT22;25082;50.870;0.022;2022-10-16T03:57:47;19.70;68.90
37806;DHT22;25082;50.870;0.022;2022-10-16T04:00:13;19.70;68.90
37806;DHT22;25082;50.870;0.022;2022-10-16T04:02:39;19.70;68.90
37806;DHT22;25082;50.870;0.022;2022-10-16T04:05:05;19.70;68.90
37806;DHT22;25082;50.870;0.022;2022-10-16T04:07:31;19.70;68.90
37806;DHT22;25082;50.870;0.022;2022-10-16T04:09:57;19.70;68.80
37806;DHT22;25082;50.870;0.022;2022-10-16T04:12:24;19.70;68.80
37806;DHT22;25082;50.870;0.022;2022-10-16T04:14:50;19.70;68.80
37806;DHT22;25082;50.870;0.022;2022-10-16T04:17:16;19.70;68.80
37806;DHT22;25082;50.870;0.022;2022-10-16T04:19:42;19.70;68.80
37806;DHT22;25082;50.870;0.022;2022-10-16T04:22:07;19.70;68.80
37806;DHT22;25082;50.870;0.022;2022-10-16T04:24:33;19.70;68.80
37806;DHT22;25082;50.870;0.022;2022-10-16T04:26:59;19.70;68.80
37806;DHT22;25082;50.870;0.022;2022-10-16T04:29:25;19.70;68.80
37806;DHT22;25082;50.870;0.022;2022-10-16T04:31:50;19.70;68.80
37806;DHT22;25082;50.870;0.022;2022-10-16T04:34:16;19.70;68.90
37806;DHT22;25082;50.870;0.022;2022-10-16T04:36:42;19.70;68.90
37806;DHT22;25082;50.870;0.022;2022-10-16T04:39:08;19.70;68.80
37806;DHT22;25082;50.870;0.022;2022-10-16T04:41:33;19.70;68.80
37806;DHT22;25082;50.870;0.022;2022-10-16T04:43:59;19.70;68.80
37806;DHT22;25082;50.870;0.022;2022-10-16T04:46:25;19.70;68.80
37806;DHT22;25082;50.870;0.022;2022-10-16T04:48:50;19.70;68.80
37806;DHT22;25082;50.870;0.022;2022-10-16T04:51:16;19.60;68.70
37806;DHT22;25082;50.870;0.022;2022-10-16T04:53:42;19.60;68.70
37806;DHT22;25082;50.870;0.022;2022-10-16T04:56:08;19.60;68.70
37806;DHT22;25082;50.870;0.022;2022-10-16T04:58:33;19.60;68.70
37806;DHT22;25082;50.870;0.022;2022-10-16T05:00:59;19.60;68.70
37806;DHT22;25082;50.870;0.022;2022-10-16T05:03:25;19.70;68.80
37806;DHT22;25082;50.870;0.022;2022-10-16T05:05:50;19.70;68.80
37806;DHT22;25082;50.870;0.022;2022-10-16T05:08:16;19.60;68.70
37806;DHT22;25082;50.870;0.022;2022-10-16T05:10:43;19.60;68.70
37806;DHT22;25082;50.870;0.022;2022-10-16T05:13:09;19.70;68.70
37806;DHT22;25082;50.870;0.022;2022-10-16T05:15:35;19.60;68.60
37806;DHT22;25082;50.870;0.022;2022-10-16T05:18:01;19.60;68.70
37806;DHT22;25082;50.870;0.022;2022-10-16T05:20:26;19.60;68.70
37806;DHT22;25082;50.870;0.022;2022-10-16T05:22:52;19.60;68.60
37806;DHT22;25082;50.870;0.022;2022-10-16T05:25:18;19.60;68.60
37806;DHT22;25082;50.870;0.022;2022-10-16T05:27:46;19.60;68.70
37806;DHT22;25082;50.870;0.022;2022-10-16T05:30:12;19.60;68.60
37806;DHT22;25082;50.870;0.022;2022-10-16T05:32:38;19.60;68.70
37806;DHT22;25082;50.870;0.022;2022-10-16T05:35:04;19.60;68.60
37806;DHT22;25082;50.870;0.022;2022-10-16T05:37:30;19.60;68.60
37806;DHT22;25082;50.870;0.022;2022-10-16T05:39:55;19.60;68.60
37806;DHT22;25082;50.870;0.022;2022-10-16T05:42:21;19.60;68.70
37806;DHT22;25082;50.870;0.022;2022-10-16T05:44:47;19.60;68.70
37806;DHT22;25082;50.870;0.022;2022-10-16T05:47:13;19.60;68.70
37806;DHT22;25082;50.870;0.022;2022-10-16T05:49:39;19.60;68.70
37806;DHT22;25082;50.870;0.022;2022-10-16T05:52:05;19.60;68.70
37806;DHT22;25082;50.870;0.022;2022-10-16T05:54:31;19.60;68.80
37806;DHT22;25082;50.870;0.022;2022-10-16T05:56:57;19.60;68.70
37806;DHT22;25082;50.870;0.022;2022-10-16T05:59:23;19.60;68.80
37806;DHT22;25082;50.870;0.022;2022-10-16T06:01:48;19.60;68.70
37806;DHT22;25082;50.870;0.022;2022-10-16T06:04:14;19.60;68.70
37806;DHT22;25082;50.870;0.022;2022-10-16T06:06:40;19.60;68.70
37806;DHT22;25082;50.870;0.022;2022-10-16T06:09:06;19.60;68.70
37806;DHT22;25082;50.870;0.022;2022-10-16T06:11:32;19.60;68.70
37806;DHT22;25082;50.870;0.022;2022-10-16T06:14:00;19.60;68.70
37806;DHT22;25082;50.870;0.022;2022-10-16T06:16:33;19.50;68.70
37806;DHT22;25082;50.870;0.022;2022-10-16T06:18:59;19.60;68.80
37806;DHT22;25082;50.870;0.022;2022-10-16T06:21:26;19.60;68.80
37806;DHT22;25082;50.870;0.022;2022-10-16T06:23:53;19.60;68.80
37806;DHT22;25082;50.870;0.022;2022-10-16T06:26:22;19.50;68.70
37806;DHT22;25082;50.870;0.022;2022-10-16T06:28:48;19.60;69.30
37806;DHT22;25082;50.870;0.022;2022-10-16T06:31:15;19.50;69.20
37806;DHT22;25082;50.870;0.022;2022-10-16T06:33:41;19.50;68.60
37806;DHT22;25082;50.870;0.022;2022-10-16T06:36:09;19.60;68.70
37806;DHT22;25082;50.870;0.022;2022-10-16T06:38:36;19.50;68.60
37806;DHT22;25082;50.870;0.022;2022-10-16T06:41:02;19.60;68.70
37806;DHT22;25082;50.870;0.022;2022-10-16T06:43:29;19.50;68.60
37806;DHT22;25082;50.870;0.022;2022-10-16T06:45:59;19.50;68.70
37806;DHT22;25082;50.870;0.022;2022-10-16T06:48:25;19.50;68.60
37806;DHT22;25082;50.870;0.022;2022-10-16T06:51:15;19.50;68.60
37806;DHT22;25082;50.870;0.022;2022-10-16T06:53:43;19.50;68.60
37806;DHT22;25082;50.870;0.022;2022-10-16T06:56:24;19.50;68.60
37806;DHT22;25082;50.870;0.022;2022-10-16T06:58:50;19.50;68.60
37806;DHT22;25082;50.870;0.022;2022-10-16T07:01:19;19.50;68.70
37806;DHT22;25082;50.870;0.022;2022-10-16T07:03:46;19.50;68.70
37806;DHT22;25082;50.870;0.022;2022-10-16T07:06:17;19.60;68.70
37806;DHT22;25082;50.870;0.022;2022-10-16T07:08:44;19.60;68.70
37806;DHT22;25082;50.870;0.022;2022-10-16T07:11:15;19.60;69.20
37806;DHT22;25082;50.870;0.022;2022-10-16T07:13:42;19.70;68.60
37806;DHT22;25082;50.870;0.022;2022-10-16T07:16:11;19.70;68.50
37806;DHT22;25082;50.870;0.022;2022-10-16T07:18:37;19.70;68.60
37806;DHT22;25082;50.870;0.022;2022-10-16T07:21:06;19.70;68.50
37806;DHT22;25082;50.870;0.022;2022-10-16T07:23:32;19.70;68.50
37806;DHT22;25082;50.870;0.022;2022-10-16T07:25:57;19.80;68.50
37806;DHT22;25082;50.870;0.022;2022-10-16T07:28:23;19.80;68.60
37806;DHT22;25082;50.870;0.022;2022-10-16T07:30:49;19.80;68.60
37806;DHT22;25082;50.870;0.022;2022-10-16T07:33:14;19.70;68.50
37806;DHT22;25082;50.870;0.022;2022-10-16T07:35:50;19.80;68.60
37806;DHT22;25082;50.870;0.022;2022-10-16T07:38:17;19.70;68.50
37806;DHT22;25082;50.870;0.022;2022-10-16T07:40:43;19.80;68.60
37806;DHT22;25082;50.870;0.022;2022-10-16T07:43:09;19.80;68.60
37806;DHT22;25082;50.870;0.022;2022-10-16T07:45:34;19.80;68.60
37806;DHT22;25082;50.870;0.022;2022-10-16T07:48:00;19.80;68.60
37806;DHT22;25082;50.870;0.022;2022-10-16T07:50:26;19.80;68.60
37806;DHT22;25082;50.870;0.022;2022-10-16T07:52:52;19.80;68.60
37806;DHT22;25082;50.870;0.022;2022-10-16T07:55:17;19.80;68.60
37806;DHT22;25082;50.870;0.022;2022-10-16T07:57:43;19.80;68.60
37806;DHT22;25082;50.870;0.022;2022-10-16T08:00:09;19.80;69.20
37806;DHT22;25082;50.870;0.022;2022-10-16T08:02:40;19.80;68.60
37806;DHT22;25082;50.870;0.022;2022-10-16T08:05:06;19.80;68.60
37806;DHT22;25082;50.870;0.022;2022-10-16T08:07:32;19.80;68.60
37806;DHT22;25082;50.870;0.022;2022-10-16T08:09:57;19.90;68.70
37806;DHT22;25082;50.870;0.022;2022-10-16T08:12:27;19.80;68.70
37806;DHT22;25082;50.870;0.022;2022-10-16T08:14:53;19.80;68.70
37806;DHT22;25082;50.870;0.022;2022-10-16T08:17:18;19.80;68.70
37806;DHT22;25082;50.870;0.022;2022-10-16T08:19:46;19.80;68.70
37806;DHT22;25082;50.870;0.022;2022-10-16T08:22:13;19.90;68.90
37806;DHT22;25082;50.870;0.022;2022-10-16T08:24:39;19.80;68.80
37806;DHT22;25082;50.870;0.022;2022-10-16T08:27:04;19.90;68.90
37806;DHT22;25082;50.870;0.022;2022-10-16T08:29:30;19.90;68.90
37806;DHT22;25082;50.870;0.022;2022-10-16T08:31:56;19.90;68.90
37806;DHT22;25082;50.870;0.022;2022-10-16T08:34:22;20.00;68.90
37806;DHT22;25082;50.870;0.022;2022-10-16T08:36:47;19.90;68.80
37806;DHT22;25082;50.870;0.022;2022-10-16T08:39:13;20.00;68.90
37806;DHT22;25082;50.870;0.022;2022-10-16T08:44:37;20.00;68.90
37806;DHT22;25082;50.870;0.022;2022-10-16T08:47:33;20.00;68.90
37806;DHT22;25082;50.870;0.022;2022-10-16T08:50:09;20.10;69.00
37806;DHT22;25082;50.870;0.022;2022-10-16T08:52:39;20.00;69.00
37806;DHT22;25082;50.870;0.022;2022-10-16T08:55:06;20.00;69.30
37806;DHT22;25082;50.870;0.022;2022-10-16T08:57:32;20.00;69.10
37806;DHT22;25082;50.870;0.022;2022-10-16T09:00:00;20.00;69.00
37806;DHT22;25082;50.870;0.022;2022-10-16T09:09:18;20.10;69.10
37806;DHT22;25082;50.870;0.022;2022-10-16T09:16:53;20.10;69.20
37806;DHT22;25082;50.870;0.022;2022-10-16T09:19:34;20.10;69.40
37806;DHT22;25082;50.870;0.022;2022-10-16T09:22:11;20.10;69.40
37806;DHT22;25082;50.870;0.022;2022-10-16T09:24:38;20.20;69.50
37806;DHT22;25082;50.870;0.022;2022-10-16T09:27:03;20.10;69.50
37806;DHT22;25082;50.870;0.022;2022-10-16T09:29:29;20.10;69.50
37806;DHT22;25082;50.870;0.022;2022-10-16T09:31:57;20.20;69.60
37806;DHT22;25082;50.870;0.022;2022-10-16T09:34:37;20.20;69.50
37806;DHT22;25082;50.870;0.022;2022-10-16T09:37:09;20.20;69.50
37806;DHT22;25082;50.870;0.022;2022-10-16T09:39:53;20.20;69.60
37806;DHT22;25082;50.870;0.022;2022-10-16T09:42:26;20.30;70.00
37806;DHT22;25082;50.870;0.022;2022-10-16T09:44:53;20.30;69.70
37806;DHT22;25082;50.870;0.022;2022-10-16T09:47:27;20.20;69.80
37806;DHT22;25082;50.870;0.022;2022-10-16T09:52:23;20.30;69.80
37806;DHT22;25082;50.870;0.022;2022-10-16T09:55:00;20.30;69.90
37806;DHT22;25082;50.870;0.022;2022-10-16T09:57:26;20.30;69.90
37806;DHT22;25082;50.870;0.022;2022-10-16T09:59:57;20.30;69.90
37806;DHT22;25082;50.870;0.022;2022-10-16T10:02:30;20.40;70.00
37806;DHT22;25082;50.870;0.022;2022-10-16T10:04:56;20.40;70.00
37806;DHT22;25082;50.870;0.022;2022-10-16T10:07:43;20.40;69.90
37806;DHT22;25082;50.870;0.022;2022-10-16T10:10:30;20.40;70.00
37806;DHT22;25082;50.870;0.022;2022-10-16T10:12:56;20.30;69.10
37806;DHT22;25082;50.870;0.022;2022-10-16T10:15:23;20.30;68.30
37806;DHT22;25082;50.870;0.022;2022-10-16T10:17:57;20.30;68.20
37806;DHT22;25082;50.870;0.022;2022-10-16T10:20:32;20.20;68.30
37806;DHT22;25082;50.870;0.022;2022-10-16T10:23:13;20.20;68.00
37806;DHT22;25082;50.870;0.022;2022-10-16T10:31:12;20.20;67.90
37806;DHT22;25082;50.870;0.022;2022-10-16T10:34:11;20.20;67.80
37806;DHT22;25082;50.870;0.022;2022-10-16T10:36:46;20.20;67.90
37806;DHT22;25082;50.870;0.022;2022-10-16T10:39:27;20.20;68.00
37806;DHT22;25082;50.870;0.022;2022-10-16T10:42:17;20.20;68.10
37806;DHT22;25082;50.870;0.022;2022-10-16T10:47:37;20.20;68.00
37806;DHT22;25082;50.870;0.022;2022-10-16T10:53:18;20.10;68.10
37806;DHT22;25082;50.870;0.022;2022-10-16T11:01:50;20.10;68.10
37806;DHT22;25082;50.870;0.022;2022-10-16T11:07:20;20.20;67.80
37806;DHT22;25082;50.870;0.022;2022-10-16T11:09:52;20.10;67.30
37806;DHT22;25082;50.870;0.022;2022-10-16T11:12:33;20.00;66.50
37806;DHT22;25082;50.870;0.022;2022-10-16T11:17:49;20.00;67.70
37806;DHT22;25082;50.870;0.022;2022-10-16T11:20:21;20.00;67.90
37806;DHT22;25082;50.870;0.022;2022-10-16T11:22:58;20.00;68.00
37806;DHT22;25082;50.870;0.022;2022-10-16T11:25:32;20.10;68.20
37806;DHT22;25082;50.870;0.022;2022-10-16T11:30:30;20.10;68.30
37806;DHT22;25082;50.870;0.022;2022-10-16T11:38:42;20.20;68.90
37806;DHT22;25082;50.870;0.022;2022-10-16T11:41:28;20.20;68.40
37806;DHT22;25082;50.870;0.022;2022-10-16T11:46:31;20.20;68.60
37806;DHT22;25082;50.870;0.022;2022-10-16T11:49:20;20.20;68.60
37806;DHT22;25082;50.870;0.022;2022-10-16T11:54:49;20.20;68.60
37806;DHT22;25082;50.870;0.022;2022-10-16T11:57:42;20.30;68.70
37806;DHT22;25082;50.870;0.022;2022-10-16T12:00:31;20.30;68.80
37806;DHT22;25082;50.870;0.022;2022-10-16T12:03:26;20.30;68.90
37806;DHT22;25082;50.870;0.022;2022-10-16T12:06:10;20.30;68.90
37806;DHT22;25082;50.870;0.022;2022-10-16T12:08:37;20.30;69.20
37806;DHT22;25082;50.870;0.022;2022-10-16T12:13:52;20.30;69.10
37806;DHT22;25082;50.870;0.022;2022-10-16T12:16:28;20.30;69.20
37806;DHT22;25082;50.870;0.022;2022-10-16T12:19:24;20.30;69.20
37806;DHT22;25082;50.870;0.022;2022-10-16T12:21:51;20.30;69.30
37806;DHT22;25082;50.870;0.022;2022-10-16T12:24:42;20.30;69.40
37806;DHT22;25082;50.870;0.022;2022-10-16T12:27:28;20.40;69.40
37806;DHT22;25082;50.870;0.022;2022-10-16T12:29:57;20.30;69.40
37806;DHT22;25082;50.870;0.022;2022-10-16T12:32:35;20.40;69.30
37806;DHT22;25082;50.870;0.022;2022-10-16T12:35:03;20.40;69.90
37806;DHT22;25082;50.870;0.022;2022-10-16T12:37:37;20.40;69.40
37806;DHT22;25082;50.870;0.022;2022-10-16T12:40:23;20.40;69.40
37806;DHT22;25082;50.870;0.022;2022-10-16T12:42:50;20.40;69.50
37806;DHT22;25082;50.870;0.022;2022-10-16T12:45:31;20.40;69.50
37806;DHT22;25082;50.870;0.022;2022-10-16T12:48:00;20.40;69.60
37806;DHT22;25082;50.870;0.022;2022-10-16T12:50:35;20.40;69.60
37806;DHT22;25082;50.870;0.022;2022-10-16T12:53:04;20.40;69.80
37806;DHT22;25082;50.870;0.022;2022-10-16T12:58:50;20.40;69.90
37806;DHT22;25082;50.870;0.022;2022-10-16T13:18:48;20.50;70.80
37806;DHT22;25082;50.870;0.022;2022-10-16T13:21:58;20.50;70.50
37806;DHT22;25082;50.870;0.022;2022-10-16T13:27:35;20.50;70.70
37806;DHT22;25082;50.870;0.022;2022-10-16T13:30:17;20.50;71.00
37806;DHT22;25082;50.870;0.022;2022-10-16T13:32:49;20.50;70.70
37806;DHT22;25082;50.870;0.022;2022-10-16T13:35:28;20.50;70.70
37806;DHT22;25082;50.870;0.022;2022-10-16T13:38:16;20.50;70.90
37806;DHT22;25082;50.870;0.022;2022-10-16T13:43:40;20.50;70.80
37806;DHT22;25082;50.870;0.022;2022-10-16T13:46:13;20.50;70.70
37806;DHT22;25082;50.870;0.022;2022-10-16T13:48:40;20.50;70.70
37806;DHT22;25082;50.870;0.022;2022-10-16T13:51:14;20.50;70.70
37806;DHT22;25082;50.870;0.022;2022-10-16T13:53:41;20.50;70.60
37806;DHT22;25082;50.870;0.022;2022-10-16T13:56:13;20.50;70.70
37806;DHT22;25082;50.870;0.022;2022-10-16T13:58:40;20.50;70.60
37806;DHT22;25082;50.870;0.022;2022-10-16T14:01:30;20.50;70.70
37806;DHT22;25082;50.870;0.022;2022-10-16T14:04:04;20.50;70.80
37806;DHT22;25082;50.870;0.022;2022-10-16T14:06:31;20.50;70.70
37806;DHT22;25082;50.870;0.022;2022-10-16T14:09:08;20.50;70.60
37806;DHT22;25082;50.870;0.022;2022-10-16T14:11:46;20.50;70.90
37806;DHT22;25082;50.870;0.022;2022-10-16T14:14:13;20.50;70.90
37806;DHT22;25082;50.870;0.022;2022-10-16T14:16:41;20.50;71.00
37806;DHT22;25082;50.870;0.022;2022-10-16T14:19:36;20.50;71.20
37806;DHT22;25082;50.870;0.022;2022-10-16T14:22:02;20.50;71.10
37806;DHT22;25082;50.870;0.022;2022-10-16T14:24:33;20.50;71.20
37806;DHT22;25082;50.870;0.022;2022-10-16T14:27:00;20.50;71.10
37806;DHT22;25082;50.870;0.022;2022-10-16T14:29:28;20.50;71.20
37806;DHT22;25082;50.870;0.022;2022-10-16T14:32:02;20.50;71.10
37806;DHT22;25082;50.870;0.022;2022-10-16T14:34:34;20.40;71.10
37806;DHT22;25082;50.870;0.022;2022-10-16T14:39:33;20.50;71.20
37806;DHT22;25082;50.870;0.022;2022-10-16T14:41:59;20.50;71.40
37806;DHT22;25082;50.870;0.022;2022-10-16T14:44:33;20.50;71.10
37806;DHT22;25082;50.870;0.022;2022-10-16T14:47:11;20.50;71.10
37806;DHT22;25082;50.870;0.022;2022-10-16T14:49:38;20.50;71.10
37806;DHT22;25082;50.870;0.022;2022-10-16T14:52:09;20.50;71.20
37806;DHT22;25082;50.870;0.022;2022-10-16T14:54:35;20.50;71.10
37806;DHT22;25082;50.870;0.022;2022-10-16T14:57:01;20.50;71.20
37806;DHT22;25082;50.870;0.022;2022-10-16T14:59:40;20.50;71.00
37806;DHT22;25082;50.870;0.022;2022-10-16T15:02:27;20.50;71.10
37806;DHT22;25082;50.870;0.022;2022-10-16T15:04:53;20.50;70.90
37806;DHT22;25082;50.870;0.022;2022-10-16T15:07:19;20.50;70.90
37806;DHT22;25082;50.870;0.022;2022-10-16T15:09:45;20.50;70.90
37806;DHT22;25082;50.870;0.022;2022-10-16T15:12:11;20.50;70.90
37806;DHT22;25082;50.870;0.022;2022-10-16T15:14:37;20.50;70.90
37806;DHT22;25082;50.870;0.022;2022-10-16T15:17:03;20.50;71.50
37806;DHT22;25082;50.870;0.022;2022-10-16T15:19:29;20.50;70.90
37806;DHT22;25082;50.870;0.022;2022-10-16T15:21:55;20.50;70.90
37806;DHT22;25082;50.870;0.022;2022-10-16T15:24:21;20.50;70.90
37806;DHT22;25082;50.870;0.022;2022-10-16T15:26:47;20.50;70.90
37806;DHT22;25082;50.870;0.022;2022-10-16T15:29:14;20.50;70.90
37806;DHT22;25082;50.870;0.022;2022-10-16T15:31:40;20.50;70.90
37806;DHT22;25082;50.870;0.022;2022-10-16T15:34:10;20.40;70.80
37806;DHT22;25082;50.870;0.022;2022-10-16T15:36:38;20.50;70.90
37806;DHT22;25082;50.870;0.022;2022-10-16T15:39:05;20.50;70.80
37806;DHT22;25082;50.870;0.022;2022-10-16T15:41:31;20.50;71.00
37806;DHT22;25082;50.870;0.022;2022-10-16T15:43:57;20.50;71.00
37806;DHT22;25082;50.870;0.022;2022-10-16T15:46:23;20.50;71.00
37806;DHT22;25082;50.870;0.022;2022-10-16T15:48:50;20.50;70.90
37806;DHT22;25082;50.870;0.022;2022-10-16T15:51:17;20.50;71.00
37806;DHT22;25082;50.870;0.022;2022-10-16T15:53:43;20.50;71.00
37806;DHT22;25082;50.870;0.022;2022-10-16T15:56:12;20.50;70.90
37806;DHT22;25082;50.870;0.022;2022-10-16T15:58:38;20.40;70.90
37806;DHT22;25082;50.870;0.022;2022-10-16T16:01:05;20.50;70.80
37806;DHT22;25082;50.870;0.022;2022-10-16T16:03:31;20.50;70.90
37806;DHT22;25082;50.870;0.022;2022-10-16T16:05:58;20.50;71.00
37806;DHT22;25082;50.870;0.022;2022-10-16T16:08:24;20.50;70.90
37806;DHT22;25082;50.870;0.022;2022-10-16T16:11:05;20.40;70.80
37806;DHT22;25082;50.870;0.022;2022-10-16T16:13:31;20.40;70.80
37806;DHT22;25082;50.870;0.022;2022-10-16T16:15:57;20.50;70.90
37806;DHT22;25082;50.870;0.022;2022-10-16T16:18:23;20.50;70.90
37806;DHT22;25082;50.870;0.022;2022-10-16T16:20:50;20.50;70.90
37806;DHT22;25082;50.870;0.022;2022-10-16T16:23:16;20.50;71.00
37806;DHT22;25082;50.870;0.022;2022-10-16T16:25:42;20.50;71.00
37806;DHT22;25082;50.870;0.022;2022-10-16T16:28:08;20.50;71.00
37806;DHT22;25082;50.870;0.022;2022-10-16T16:30:36;20.50;71.00
37806;DHT22;25082;50.870;0.022;2022-10-16T16:33:01;20.50;70.90
37806;DHT22;25082;50.870;0.022;2022-10-16T16:35:27;20.50;70.90
37806;DHT22;25082;50.870;0.022;2022-10-16T16:37:53;20.50;71.00
37806;DHT22;25082;50.870;0.022;2022-10-16T16:40:19;20.50;71.50
37806;DHT22;25082;50.870;0.022;2022-10-16T16:42:47;20.50;71.00
37806;DHT22;25082;50.870;0.022;2022-10-16T16:45:12;20.50;71.00
37806;DHT22;25082;50.870;0.022;2022-10-16T16:47:38;20.50;70.90
37806;DHT22;25082;50.870;0.022;2022-10-16T16:50:04;20.50;71.00
37806;DHT22;25082;50.870;0.022;2022-10-16T16:52:32;20.50;71.00
37806;DHT22;25082;50.870;0.022;2022-10-16T16:54:58;20.40;71.00
37806;DHT22;25082;50.870;0.022;2022-10-16T16:57:24;20.50;71.00
37806;DHT22;25082;50.870;0.022;2022-10-16T16:59:51;20.40;71.00
37806;DHT22;25082;50.870;0.022;2022-10-16T17:02:17;20.40;71.00
37806;DHT22;25082;50.870;0.022;2022-10-16T17:04:43;20.40;71.00
37806;DHT22;25082;50.870;0.022;2022-10-16T17:07:08;20.40;71.00
37806;DHT22;25082;50.870;0.022;2022-10-16T17:09:34;20.40;71.00
37806;DHT22;25082;50.870;0.022;2022-10-16T17:12:00;20.40;71.00
37806;DHT22;25082;50.870;0.022;2022-10-16T17:14:26;20.40;71.00
37806;DHT22;25082;50.870;0.022;2022-10-16T17:16:52;20.40;71.00
37806;DHT22;25082;50.870;0.022;2022-10-16T17:19:19;20.40;71.00
37806;DHT22;25082;50.870;0.022;2022-10-16T17:21:47;20.40;71.00
37806;DHT22;25082;50.870;0.022;2022-10-16T17:24:13;20.40;71.00
37806;DHT22;25082;50.870;0.022;2022-10-16T17:26:39;20.40;71.00
37806;DHT22;25082;50.870;0.022;2022-10-16T17:29:10;20.40;71.00